sensor_id;sensor_type;location;lat;lon;timestamp;P1;durP1;ratioP1;P2;durP2;ratioP2
52272;SDS011;38227;50.942;4.016;2023-04-01T00:00:09;0.73;;;0.43;;
52272;SDS011;38227;50.942;4.016;2023-04-01T00:03:02;1.85;;;0.50;;
52272;SDS011;38227;50.942;4.016;2023-04-01T00:06:03;0.80;;;0.40;;
52272;SDS011;38227;50.942;4.016;2023-04-01T00:08:46;0.73;;;0.62;;
52272;SDS011;38227;50.942;4.016;2023-04-01T00:11:21;0.68;;;0.40;;
52272;SDS011;38227;50.942;4.016;2023-04-01T00:14:02;0.50;;;0.50;;
52272;SDS011;38227;50.942;4.016;2023-04-01T00:16:52;0.60;;;0.60;;
52272;SDS011;38227;50.942;4.016;2023-04-01T00:19:56;1.20;;;0.70;;
52272;SDS011;38227;50.942;4.016;2023-04-01T00:22:38;1.08;;;0.80;;
52272;SDS011;38227;50.942;4.016;2023-04-01T00:25:24;1.23;;;0.82;;
52272;SDS011;38227;50.942;4.016;2023-04-01T00:27:55;1.35;;;0.85;;
52272;SDS011;38227;50.942;4.016;2023-04-01T00:30:46;1.00;;;0.90;;
52272;SDS011;38227;50.942;4.016;2023-04-01T00:33:35;1.52;;;0.98;;
52272;SDS011;38227;50.942;4.016;2023-04-01T00:36:13;1.60;;;0.95;;
52272;SDS011;38227;50.942;4.016;2023-04-01T00:38:43;1.40;;;1.00;;
52272;SDS011;38227;50.942;4.016;2023-04-01T00:41:16;1.40;;;1.10;;
52272;SDS011;38227;50.942;4.016;2023-04-01T00:43:48;1.12;;;1.00;;
52272;SDS011;38227;50.942;4.016;2023-04-01T00:46:22;1.80;;;1.40;;
52272;SDS011;38227;50.942;4.016;2023-04-01T00:48:54;1.60;;;1.40;;
52272;SDS011;38227;50.942;4.016;2023-04-01T00:51:34;1.60;;;1.50;;
52272;SDS011;38227;50.942;4.016;2023-04-01T00:54:04;2.10;;;1.35;;
52272;SDS011;38227;50.942;4.016;2023-04-01T00:56:37;1.75;;;1.40;;
52272;SDS011;38227;50.942;4.016;2023-04-01T00:59:24;2.50;;;1.75;;
52272;SDS011;38227;50.942;4.016;2023-04-01T01:02:00;2.25;;;1.90;;
52272;SDS011;38227;50.942;4.016;2023-04-01T01:04:31;1.52;;;1.40;;
52272;SDS011;38227;50.942;4.016;2023-04-01T01:10:18;1.58;;;1.48;;
52272;SDS011;38227;50.942;4.016;2023-04-01T01:16:06;1.80;;;1.60;;
52272;SDS011;38227;50.942;4.016;2023-04-01T01:18:56;2.50;;;2.10;;
52272;SDS011;38227;50.942;4.016;2023-04-01T01:21:54;2.12;;;1.60;;
52272;SDS011;38227;50.942;4.016;2023-04-01T01:28:28;3.85;;;2.15;;
52272;SDS011;38227;50.942;4.016;2023-04-01T01:39:01;2.20;;;1.55;;
52272;SDS011;38227;50.942;4.016;2023-04-01T01:41:42;1.30;;;1.10;;
52272;SDS011;38227;50.942;4.016;2023-04-01T01:44:27;2.17;;;1.20;;
52272;SDS011;38227;50.942;4.016;2023-04-01T01:47:09;2.17;;;1.20;;
52272;SDS011;38227;50.942;4.016;2023-04-01T01:49:48;1.70;;;1.00;;
52272;SDS011;38227;50.942;4.016;2023-04-01T01:52:27;1.35;;;1.25;;
52272;SDS011;38227;50.942;4.016;2023-04-01T01:55:23;1.33;;;1.20;;
52272;SDS011;38227;50.942;4.016;2023-04-01T02:01:10;3.53;;;1.90;;
52272;SDS011;38227;50.942;4.016;2023-04-01T02:04:13;1.05;;;0.90;;
52272;SDS011;38227;50.942;4.016;2023-04-01T02:06:56;1.48;;;1.17;;
52272;SDS011;38227;50.942;4.016;2023-04-01T02:09:36;2.42;;;1.35;;
52272;SDS011;38227;50.942;4.016;2023-04-01T02:12:12;0.90;;;0.82;;
52272;SDS011;38227;50.942;4.016;2023-04-01T02:15:09;1.35;;;0.98;;
52272;SDS011;38227;50.942;4.016;2023-04-01T02:17:49;2.17;;;0.93;;
52272;SDS011;38227;50.942;4.016;2023-04-01T02:20:23;2.12;;;1.00;;
52272;SDS011;38227;50.942;4.016;2023-04-01T02:22:56;1.05;;;0.80;;
52272;SDS011;38227;50.942;4.016;2023-04-01T02:25:37;2.53;;;1.20;;
52272;SDS011;38227;50.942;4.016;2023-04-01T02:28:08;2.22;;;1.10;;
52272;SDS011;38227;50.942;4.016;2023-04-01T02:30:43;1.73;;;1.15;;
52272;SDS011;38227;50.942;4.016;2023-04-01T02:33:14;0.80;;;0.80;;
52272;SDS011;38227;50.942;4.016;2023-04-01T02:36:04;1.80;;;1.20;;
52272;SDS011;38227;50.942;4.016;2023-04-01T02:38:35;1.30;;;1.10;;
52272;SDS011;38227;50.942;4.016;2023-04-01T02:41:06;3.15;;;1.80;;
52272;SDS011;38227;50.942;4.016;2023-04-01T02:43:37;2.40;;;1.30;;
52272;SDS011;38227;50.942;4.016;2023-04-01T02:46:06;2.15;;;1.27;;
52272;SDS011;38227;50.942;4.016;2023-04-01T02:48:39;1.80;;;1.45;;
52272;SDS011;38227;50.942;4.016;2023-04-01T02:51:20;2.05;;;1.60;;
52272;SDS011;38227;50.942;4.016;2023-04-01T02:53:50;2.60;;;1.60;;
52272;SDS011;38227;50.942;4.016;2023-04-01T02:56:20;2.55;;;1.70;;
52272;SDS011;38227;50.942;4.016;2023-04-01T02:58:51;2.83;;;2.12;;
52272;SDS011;38227;50.942;4.016;2023-04-01T03:01:34;2.97;;;1.77;;
52272;SDS011;38227;50.942;4.016;2023-04-01T03:04:14;2.95;;;1.80;;
52272;SDS011;38227;50.942;4.016;2023-04-01T03:06:52;1.87;;;1.60;;
52272;SDS011;38227;50.942;4.016;2023-04-01T03:09:30;2.60;;;1.85;;
52272;SDS011;38227;50.942;4.016;2023-04-01T03:12:19;2.05;;;1.65;;
52272;SDS011;38227;50.942;4.016;2023-04-01T03:14:50;2.05;;;1.67;;
52272;SDS011;38227;50.942;4.016;2023-04-01T03:17:38;2.40;;;1.80;;
52272;SDS011;38227;50.942;4.016;2023-04-01T03:20:29;2.55;;;1.80;;
52272;SDS011;38227;50.942;4.016;2023-04-01T03:23:01;3.12;;;1.87;;
52272;SDS011;38227;50.942;4.016;2023-04-01T03:25:49;2.83;;;2.08;;
52272;SDS011;38227;50.942;4.016;2023-04-01T03:28:20;2.87;;;1.92;;
52272;SDS011;38227;50.942;4.016;2023-04-01T03:30:56;2.30;;;1.83;;
52272;SDS011;38227;50.942;4.016;2023-04-01T03:33:53;2.58;;;1.90;;
52272;SDS011;38227;50.942;4.016;2023-04-01T03:36:33;3.15;;;1.70;;
52272;SDS011;38227;50.942;4.016;2023-04-01T03:39:40;3.37;;;1.60;;
52272;SDS011;38227;50.942;4.016;2023-04-01T03:42:11;2.78;;;1.60;;
52272;SDS011;38227;50.942;4.016;2023-04-01T03:45:08;3.75;;;2.33;;
52272;SDS011;38227;50.942;4.016;2023-04-01T03:48:02;2.75;;;1.50;;
52272;SDS011;38227;50.942;4.016;2023-04-01T03:50:53;2.03;;;1.55;;
52272;SDS011;38227;50.942;4.016;2023-04-01T03:53:41;3.12;;;1.75;;
52272;SDS011;38227;50.942;4.016;2023-04-01T03:56:16;2.28;;;1.80;;
52272;SDS011;38227;50.942;4.016;2023-04-01T03:58:56;2.30;;;1.60;;
52272;SDS011;38227;50.942;4.016;2023-04-01T04:01:36;1.92;;;1.30;;
52272;SDS011;38227;50.942;4.016;2023-04-01T04:04:30;3.45;;;1.30;;
52272;SDS011;38227;50.942;4.016;2023-04-01T04:07:01;2.22;;;1.40;;
52272;SDS011;38227;50.942;4.016;2023-04-01T04:09:47;1.95;;;1.55;;
52272;SDS011;38227;50.942;4.016;2023-04-01T04:12:21;1.70;;;1.20;;
52272;SDS011;38227;50.942;4.016;2023-04-01T04:14:55;1.42;;;1.12;;
52272;SDS011;38227;50.942;4.016;2023-04-01T04:17:48;1.45;;;1.08;;
52272;SDS011;38227;50.942;4.016;2023-04-01T04:20:20;1.00;;;0.77;;
52272;SDS011;38227;50.942;4.016;2023-04-01T04:23:17;1.30;;;1.10;;
52272;SDS011;38227;50.942;4.016;2023-04-01T04:26:04;1.00;;;0.93;;
52272;SDS011;38227;50.942;4.016;2023-04-01T04:28:38;1.77;;;1.33;;
52272;SDS011;38227;50.942;4.016;2023-04-01T04:31:30;1.58;;;1.12;;
52272;SDS011;38227;50.942;4.016;2023-04-01T04:34:10;1.25;;;0.98;;
52272;SDS011;38227;50.942;4.016;2023-04-01T04:36:50;0.80;;;0.80;;
52272;SDS011;38227;50.942;4.016;2023-04-01T04:39:33;0.68;;;0.68;;
52272;SDS011;38227;50.942;4.016;2023-04-01T04:42:11;0.52;;;0.52;;
52272;SDS011;38227;50.942;4.016;2023-04-01T04:44:47;1.15;;;0.95;;
52272;SDS011;38227;50.942;4.016;2023-04-01T04:47:18;0.95;;;0.73;;
52272;SDS011;38227;50.942;4.016;2023-04-01T04:50:07;2.50;;;1.37;;
52272;SDS011;38227;50.942;4.016;2023-04-01T04:52:39;0.77;;;0.77;;
52272;SDS011;38227;50.942;4.016;2023-04-01T04:55:26;1.15;;;0.80;;
52272;SDS011;38227;50.942;4.016;2023-04-01T04:58:03;1.30;;;1.00;;
52272;SDS011;38227;50.942;4.016;2023-04-01T05:00:54;1.42;;;1.00;;
52272;SDS011;38227;50.942;4.016;2023-04-01T05:03:45;1.40;;;1.30;;
52272;SDS011;38227;50.942;4.016;2023-04-01T05:06:34;2.33;;;1.40;;
52272;SDS011;38227;50.942;4.016;2023-04-01T05:11:40;2.00;;;1.37;;
52272;SDS011;38227;50.942;4.016;2023-04-01T05:14:20;2.58;;;1.42;;
52272;SDS011;38227;50.942;4.016;2023-04-01T05:17:12;2.40;;;1.90;;
52272;SDS011;38227;50.942;4.016;2023-04-01T05:20:03;2.80;;;1.90;;
52272;SDS011;38227;50.942;4.016;2023-04-01T05:22:36;2.30;;;1.90;;
52272;SDS011;38227;50.942;4.016;2023-04-01T05:25:14;2.37;;;1.80;;
52272;SDS011;38227;50.942;4.016;2023-04-01T05:27:47;2.95;;;1.87;;
52272;SDS011;38227;50.942;4.016;2023-04-01T05:30:30;2.80;;;2.08;;
52272;SDS011;38227;50.942;4.016;2023-04-01T05:33:12;2.10;;;1.60;;
52272;SDS011;38227;50.942;4.016;2023-04-01T05:35:41;3.15;;;2.10;;
52272;SDS011;38227;50.942;4.016;2023-04-01T05:38:11;3.17;;;2.17;;
52272;SDS011;38227;50.942;4.016;2023-04-01T05:40:46;3.40;;;2.00;;
52272;SDS011;38227;50.942;4.016;2023-04-01T05:43:25;4.43;;;2.20;;
52272;SDS011;38227;50.942;4.016;2023-04-01T05:46:05;2.35;;;1.83;;
52272;SDS011;38227;50.942;4.016;2023-04-01T05:48:36;3.50;;;2.15;;
52272;SDS011;38227;50.942;4.016;2023-04-01T05:51:13;2.45;;;1.85;;
52272;SDS011;38227;50.942;4.016;2023-04-01T05:53:44;2.33;;;1.83;;
52272;SDS011;38227;50.942;4.016;2023-04-01T05:56:34;3.10;;;2.05;;
52272;SDS011;38227;50.942;4.016;2023-04-01T05:59:14;2.33;;;2.00;;
52272;SDS011;38227;50.942;4.016;2023-04-01T06:02:01;4.57;;;2.58;;
52272;SDS011;38227;50.942;4.016;2023-04-01T06:04:37;3.72;;;2.12;;
52272;SDS011;38227;50.942;4.016;2023-04-01T06:07:12;5.85;;;3.12;;
52272;SDS011;38227;50.942;4.016;2023-04-01T06:09:44;4.75;;;3.00;;
52272;SDS011;38227;50.942;4.016;2023-04-01T06:12:29;3.83;;;2.10;;
52272;SDS011;38227;50.942;4.016;2023-04-01T06:15:25;3.40;;;1.80;;
52272;SDS011;38227;50.942;4.016;2023-04-01T06:24:59;2.85;;;1.98;;
52272;SDS011;38227;50.942;4.016;2023-04-01T06:35:17;2.37;;;2.05;;
52272;SDS011;38227;50.942;4.016;2023-04-01T06:45:12;3.28;;;1.85;;
52272;SDS011;38227;50.942;4.016;2023-04-01T06:51:26;1.10;;;1.00;;
52272;SDS011;38227;50.942;4.016;2023-04-01T06:57:38;0.90;;;0.65;;
52272;SDS011;38227;50.942;4.016;2023-04-01T07:00:41;0.68;;;0.65;;
52272;SDS011;38227;50.942;4.016;2023-04-01T07:03:30;0.70;;;0.55;;
52272;SDS011;38227;50.942;4.016;2023-04-01T07:09:38;0.35;;;0.35;;
52272;SDS011;38227;50.942;4.016;2023-04-01T07:15:33;0.57;;;0.30;;
52272;SDS011;38227;50.942;4.016;2023-04-01T07:18:21;0.40;;;0.40;;
52272;SDS011;38227;50.942;4.016;2023-04-01T07:21:23;0.50;;;0.50;;
52272;SDS011;38227;50.942;4.016;2023-04-01T07:24:32;0.52;;;0.30;;
52272;SDS011;38227;50.942;4.016;2023-04-01T07:27:27;0.70;;;0.70;;
52272;SDS011;38227;50.942;4.016;2023-04-01T07:30:19;0.62;;;0.62;;
52272;SDS011;38227;50.942;4.016;2023-04-01T07:33:10;0.50;;;0.50;;
52272;SDS011;38227;50.942;4.016;2023-04-01T07:36:10;0.40;;;0.40;;
52272;SDS011;38227;50.942;4.016;2023-04-01T07:39:18;0.70;;;0.70;;
52272;SDS011;38227;50.942;4.016;2023-04-01T07:42:36;0.20;;;0.20;;
52272;SDS011;38227;50.942;4.016;2023-04-01T07:45:42;0.40;;;0.40;;
52272;SDS011;38227;50.942;4.016;2023-04-01T07:54:53;0.40;;;0.40;;
52272;SDS011;38227;50.942;4.016;2023-04-01T08:01:03;0.52;;;0.50;;
52272;SDS011;38227;50.942;4.016;2023-04-01T08:04:21;0.52;;;0.43;;
52272;SDS011;38227;50.942;4.016;2023-04-01T08:07:25;0.50;;;0.50;;
52272;SDS011;38227;50.942;4.016;2023-04-01T08:10:48;0.60;;;0.60;;
52272;SDS011;38227;50.942;4.016;2023-04-01T08:13:45;0.50;;;0.50;;
52272;SDS011;38227;50.942;4.016;2023-04-01T08:16:57;0.47;;;0.47;;
52272;SDS011;38227;50.942;4.016;2023-04-01T08:23:07;0.70;;;0.60;;
52272;SDS011;38227;50.942;4.016;2023-04-01T08:26:09;0.65;;;0.65;;
52272;SDS011;38227;50.942;4.016;2023-04-01T08:29:38;0.43;;;0.43;;
52272;SDS011;38227;50.942;4.016;2023-04-01T08:35:08;0.60;;;0.60;;
52272;SDS011;38227;50.942;4.016;2023-04-01T08:38:27;0.60;;;0.60;;
52272;SDS011;38227;50.942;4.016;2023-04-01T08:47:31;0.50;;;0.50;;
52272;SDS011;38227;50.942;4.016;2023-04-01T09:00:00;0.70;;;0.70;;
52272;SDS011;38227;50.942;4.016;2023-04-01T09:03:16;1.00;;;0.75;;
52272;SDS011;38227;50.942;4.016;2023-04-01T09:06:49;0.82;;;0.82;;
52272;SDS011;38227;50.942;4.016;2023-04-01T09:33:05;0.95;;;0.90;;
52272;SDS011;38227;50.942;4.016;2023-04-01T09:43:38;0.62;;;0.62;;
52272;SDS011;38227;50.942;4.016;2023-04-01T09:56:53;0.47;;;0.47;;
52272;SDS011;38227;50.942;4.016;2023-04-01T10:18:44;0.80;;;0.45;;
52272;SDS011;38227;50.942;4.016;2023-04-01T10:55:02;0.62;;;0.37;;
52272;SDS011;38227;50.942;4.016;2023-04-01T10:58:15;0.30;;;0.30;;
52272;SDS011;38227;50.942;4.016;2023-04-01T11:13:59;0.28;;;0.28;;
52272;SDS011;38227;50.942;4.016;2023-04-01T11:29:32;0.90;;;0.40;;
52272;SDS011;38227;50.942;4.016;2023-04-01T11:32:28;0.40;;;0.40;;
52272;SDS011;38227;50.942;4.016;2023-04-01T11:35:36;0.40;;;0.40;;
52272;SDS011;38227;50.942;4.016;2023-04-01T11:41:45;0.77;;;0.55;;
52272;SDS011;38227;50.942;4.016;2023-04-01T12:04:48;0.73;;;0.70;;
52272;SDS011;38227;50.942;4.016;2023-04-01T12:13:58;2.33;;;0.40;;
52272;SDS011;38227;50.942;4.016;2023-04-01T12:16:46;0.95;;;0.30;;
52272;SDS011;38227;50.942;4.016;2023-04-01T12:38:07;0.60;;;0.50;;
52272;SDS011;38227;50.942;4.016;2023-04-01T12:41:09;0.50;;;0.50;;
52272;SDS011;38227;50.942;4.016;2023-04-01T12:44:23;0.50;;;0.50;;
52272;SDS011;38227;50.942;4.016;2023-04-01T12:47:32;0.60;;;0.40;;
52272;SDS011;38227;50.942;4.016;2023-04-01T13:08:20;0.40;;;0.40;;
52272;SDS011;38227;50.942;4.016;2023-04-01T13:11:40;0.50;;;0.50;;
52272;SDS011;38227;50.942;4.016;2023-04-01T13:18:33;2.08;;;0.80;;
52272;SDS011;38227;50.942;4.016;2023-04-01T13:22:11;0.43;;;0.43;;
52272;SDS011;38227;50.942;4.016;2023-04-01T13:42:45;0.40;;;0.40;;
52272;SDS011;38227;50.942;4.016;2023-04-01T13:45:50;1.15;;;0.98;;
52272;SDS011;38227;50.942;4.016;2023-04-01T13:58:19;0.45;;;0.20;;
52272;SDS011;38227;50.942;4.016;2023-04-01T14:01:35;0.50;;;0.47;;
52272;SDS011;38227;50.942;4.016;2023-04-01T14:07:53;0.40;;;0.40;;
52272;SDS011;38227;50.942;4.016;2023-04-01T14:10:59;0.28;;;0.28;;
52272;SDS011;38227;50.942;4.016;2023-04-01T14:17:19;0.50;;;0.47;;
52272;SDS011;38227;50.942;4.016;2023-04-01T14:29:51;0.40;;;0.40;;
52272;SDS011;38227;50.942;4.016;2023-04-01T14:32:39;0.73;;;0.30;;
52272;SDS011;38227;50.942;4.016;2023-04-01T14:35:37;0.65;;;0.65;;
52272;SDS011;38227;50.942;4.016;2023-04-01T14:38:26;0.85;;;0.50;;
52272;SDS011;38227;50.942;4.016;2023-04-01T14:41:39;0.32;;;0.32;;
52272;SDS011;38227;50.942;4.016;2023-04-01T14:47:43;0.68;;;0.30;;
52272;SDS011;38227;50.942;4.016;2023-04-01T14:51:33;0.95;;;0.50;;
52272;SDS011;38227;50.942;4.016;2023-04-01T14:57:23;0.37;;;0.37;;
52272;SDS011;38227;50.942;4.016;2023-04-01T15:02:59;0.47;;;0.30;;
52272;SDS011;38227;50.942;4.016;2023-04-01T15:05:46;0.20;;;0.20;;
52272;SDS011;38227;50.942;4.016;2023-04-01T15:38:17;0.25;;;0.25;;
52272;SDS011;38227;50.942;4.016;2023-04-01T15:51:43;0.30;;;0.30;;
52272;SDS011;38227;50.942;4.016;2023-04-01T15:58:19;0.50;;;0.32;;
52272;SDS011;38227;50.942;4.016;2023-04-01T16:04:54;0.22;;;0.22;;
52272;SDS011;38227;50.942;4.016;2023-04-01T16:29:52;0.57;;;0.57;;
52272;SDS011;38227;50.942;4.016;2023-04-01T16:43:30;0.25;;;0.25;;
52272;SDS011;38227;50.942;4.016;2023-04-01T16:46:56;0.68;;;0.35;;
52272;SDS011;38227;50.942;4.016;2023-04-01T16:50:12;0.30;;;0.30;;
52272;SDS011;38227;50.942;4.016;2023-04-01T17:03:21;0.68;;;0.50;;
52272;SDS011;38227;50.942;4.016;2023-04-01T17:26:46;0.80;;;0.52;;
52272;SDS011;38227;50.942;4.016;2023-04-01T17:40:26;0.68;;;0.60;;
52272;SDS011;38227;50.942;4.016;2023-04-01T17:43:10;0.50;;;0.50;;
52272;SDS011;38227;50.942;4.016;2023-04-01T17:46:23;0.65;;;0.55;;
52272;SDS011;38227;50.942;4.016;2023-04-01T17:58:46;1.17;;;0.80;;
52272;SDS011;38227;50.942;4.016;2023-04-01T18:01:40;0.80;;;0.80;;
52272;SDS011;38227;50.942;4.016;2023-04-01T18:20:54;1.15;;;0.95;;
52272;SDS011;38227;50.942;4.016;2023-04-01T18:33:09;1.42;;;1.33;;
52272;SDS011;38227;50.942;4.016;2023-04-01T18:39:17;1.85;;;1.30;;
52272;SDS011;38227;50.942;4.016;2023-04-01T18:45:14;1.40;;;1.30;;
52272;SDS011;38227;50.942;4.016;2023-04-01T18:57:14;2.00;;;1.77;;
52272;SDS011;38227;50.942;4.016;2023-04-01T19:02:58;3.22;;;2.30;;
52272;SDS011;38227;50.942;4.016;2023-04-01T19:05:39;3.08;;;2.60;;
52272;SDS011;38227;50.942;4.016;2023-04-01T19:11:09;4.25;;;3.25;;
52272;SDS011;38227;50.942;4.016;2023-04-01T19:14:15;5.03;;;3.30;;
52272;SDS011;38227;50.942;4.016;2023-04-01T19:35:27;5.03;;;3.25;;
52272;SDS011;38227;50.942;4.016;2023-04-01T19:42:14;4.00;;;3.30;;
52272;SDS011;38227;50.942;4.016;2023-04-01T19:45:56;5.35;;;3.22;;
52272;SDS011;38227;50.942;4.016;2023-04-01T19:49:22;6.85;;;4.03;;
52272;SDS011;38227;50.942;4.016;2023-04-01T19:52:41;6.12;;;3.85;;
52272;SDS011;38227;50.942;4.016;2023-04-01T20:02:51;3.65;;;2.90;;
52272;SDS011;38227;50.942;4.016;2023-04-01T20:06:34;4.93;;;3.55;;
52272;SDS011;38227;50.942;4.016;2023-04-01T20:13:09;4.70;;;3.47;;
52272;SDS011;38227;50.942;4.016;2023-04-01T20:16:49;4.45;;;3.40;;
52272;SDS011;38227;50.942;4.016;2023-04-01T20:23:28;7.10;;;4.05;;
52272;SDS011;38227;50.942;4.016;2023-04-01T20:26:35;5.43;;;3.42;;
52272;SDS011;38227;50.942;4.016;2023-04-01T20:32:41;6.40;;;3.78;;
52272;SDS011;38227;50.942;4.016;2023-04-01T20:52:41;7.43;;;4.45;;
52272;SDS011;38227;50.942;4.016;2023-04-01T20:55:57;11.00;;;5.55;;
52272;SDS011;38227;50.942;4.016;2023-04-01T20:59:12;9.40;;;5.32;;
52272;SDS011;38227;50.942;4.016;2023-04-01T21:05:45;8.98;;;4.93;;
52272;SDS011;38227;50.942;4.016;2023-04-01T21:08:55;6.50;;;4.53;;
52272;SDS011;38227;50.942;4.016;2023-04-01T21:15:40;7.85;;;5.45;;
52272;SDS011;38227;50.942;4.016;2023-04-01T21:26:07;11.18;;;6.82;;
52272;SDS011;38227;50.942;4.016;2023-04-01T21:33:30;8.82;;;5.35;;
52272;SDS011;38227;50.942;4.016;2023-04-01T21:36:52;9.75;;;5.82;;
52272;SDS011;38227;50.942;4.016;2023-04-01T22:11:42;12.57;;;6.85;;
52272;SDS011;38227;50.942;4.016;2023-04-01T22:14:46;9.63;;;6.00;;
52272;SDS011;38227;50.942;4.016;2023-04-01T22:27:41;9.55;;;5.65;;
52272;SDS011;38227;50.942;4.016;2023-04-01T22:30:29;9.20;;;5.25;;
52272;SDS011;38227;50.942;4.016;2023-04-01T22:33:45;12.93;;;6.75;;
52272;SDS011;38227;50.942;4.016;2023-04-01T22:36:40;9.75;;;5.28;;
52272;SDS011;38227;50.942;4.016;2023-04-01T22:42:59;9.48;;;5.50;;
52272;SDS011;38227;50.942;4.016;2023-04-01T22:46:06;9.18;;;5.43;;
52272;SDS011;38227;50.942;4.016;2023-04-01T22:49:07;8.32;;;5.47;;
52272;SDS011;38227;50.942;4.016;2023-04-01T22:52:05;10.13;;;5.87;;
52272;SDS011;38227;50.942;4.016;2023-04-01T22:54:48;11.20;;;6.05;;
52272;SDS011;38227;50.942;4.016;2023-04-01T22:57:34;10.70;;;6.15;;
52272;SDS011;38227;50.942;4.016;2023-04-01T23:03:25;11.25;;;5.80;;
52272;SDS011;38227;50.942;4.016;2023-04-01T23:06:01;9.13;;;5.75;;
52272;SDS011;38227;50.942;4.016;2023-04-01T23:14:58;8.15;;;5.22;;
52272;SDS011;38227;50.942;4.016;2023-04-01T23:17:36;8.93;;;5.28;;
52272;SDS011;38227;50.942;4.016;2023-04-01T23:20:37;9.85;;;5.60;;
52272;SDS011;38227;50.942;4.016;2023-04-01T23:29:53;9.43;;;5.72;;
52272;SDS011;38227;50.942;4.016;2023-04-01T23:32:53;8.45;;;5.05;;
52272;SDS011;38227;50.942;4.016;2023-04-01T23:36:15;8.32;;;5.93;;
52272;SDS011;38227;50.942;4.016;2023-04-01T23:38:49;8.85;;;5.53;;
52272;SDS011;38227;50.942;4.016;2023-04-01T23:41:19;7.53;;;4.87;;
52272;SDS011;38227;50.942;4.016;2023-04-01T23:44:12;8.80;;;5.62;;
52272;SDS011;38227;50.942;4.016;2023-04-01T23:46:40;11.82;;;5.82;;
52272;SDS011;38227;50.942;4.016;2023-04-01T23:49:17;10.93;;;6.05;;
52272;SDS011;38227;50.942;4.016;2023-04-01T23:51:58;8.55;;;5.55;;
52272;SDS011;38227;50.942;4.016;2023-04-01T23:54:34;7.25;;;5.07;;
52272;SDS011;38227;50.942;4.016;2023-04-01T23:57:13;8.15;;;5.25;;
52272;SDS011;38227;50.942;4.016;2023-04-01T23:59:59;7.82;;;5.20;;
